createdAt,value
2023-04-18T09:03:58.566Z,25.91
2023-04-18T09:06:53.096Z,24.45
2023-04-18T09:09:26.774Z,25.19
2023-04-18T09:12:09.264Z,24.39
2023-04-18T09:14:57.394Z,23.57
2023-04-18T09:17:46.231Z,24.34
2023-04-18T09:20:15.665Z,24.79
2023-04-18T09:23:04.315Z,25.27
2023-04-18T09:25:35.504Z,24.53
2023-04-18T09:28:03.251Z,24.50
2023-04-18T09:30:40.480Z,24.34
2023-04-18T09:33:09.786Z,23.44
2023-04-18T09:35:37.555Z,24.12
2023-04-18T09:38:09.911Z,24.23
2023-04-18T09:40:38.530Z,24.38
2023-04-18T09:43:22.045Z,24.52
2023-04-18T09:45:50.148Z,23.78
2023-04-18T09:48:17.309Z,22.67
2023-04-18T09:50:48.172Z,22.59
2023-04-18T09:53:19.461Z,22.64
2023-04-18T09:55:54.802Z,22.56
2023-04-18T09:58:25.639Z,21.96
2023-04-18T10:00:53.868Z,21.81
2023-04-18T10:03:24.506Z,21.86
2023-04-18T10:05:52.033Z,21.75
2023-04-18T10:08:20.448Z,21.85
2023-04-18T10:10:47.645Z,22.08
2023-04-18T10:13:14.833Z,21.46
2023-04-18T10:15:45.632Z,20.65
2023-04-18T10:18:16.624Z,21.43
2023-04-18T10:20:46.500Z,21.37
2023-04-18T10:23:34.100Z,21.34
2023-04-18T10:26:01.826Z,20.57
2023-04-18T10:29:03.430Z,21.19
2023-04-18T10:31:38.338Z,20.92
2023-04-18T10:34:07.154Z,20.70
2023-04-18T10:36:34.353Z,21.77
2023-04-18T10:39:22.425Z,22.00
2023-04-18T10:41:51.223Z,21.10
2023-04-18T10:44:20.794Z,21.10
2023-04-18T10:46:47.764Z,20.45
2023-04-18T10:49:17.645Z,20.88
2023-04-18T10:51:45.778Z,20.45
2023-04-18T10:54:17.413Z,21.59
2023-04-18T10:56:54.323Z,22.56
2023-04-18T10:59:23.660Z,23.32
2023-04-18T11:01:55.686Z,23.60
2023-04-18T11:04:26.315Z,24.25
2023-04-18T11:06:57.895Z,24.89
2023-04-18T11:09:25.214Z,26.06
2023-04-18T11:12:07.043Z,27.13
2023-04-18T11:14:41.036Z,27.58
2023-04-18T11:17:15.283Z,27.84
2023-04-18T11:19:42.941Z,28.71
2023-04-18T11:22:11.802Z,28.47
2023-04-18T11:24:39.702Z,27.28
2023-04-18T11:27:10.365Z,28.93
2023-04-18T11:29:37.821Z,28.97
2023-04-18T11:32:06.906Z,29.68
2023-04-18T11:34:35.225Z,30.02
2023-04-18T11:37:05.981Z,30.19
2023-04-18T11:39:43.606Z,30.67
2023-04-18T11:42:10.880Z,30.13
2023-04-18T11:44:39.408Z,30.31
2023-04-18T11:47:39.203Z,31.59
2023-04-18T11:50:07.668Z,31.46
2023-04-18T11:52:35.862Z,31.70
2023-04-18T11:55:13.230Z,31.78
2023-04-18T11:57:41.440Z,31.10
2023-04-18T12:00:10.712Z,30.99
2023-04-18T12:02:43.434Z,31.04
2023-04-18T12:05:11.579Z,30.19
2023-04-18T12:07:41.593Z,30.36
2023-04-18T12:10:22.916Z,30.55
2023-04-18T12:12:51.567Z,30.55
2023-04-18T12:15:19.361Z,32.09
2023-04-18T12:17:53.234Z,31.85
2023-04-18T12:20:24.655Z,31.04
2023-04-18T12:22:53.763Z,32.48
2023-04-18T12:25:27.387Z,31.59
2023-04-18T12:27:54.816Z,32.44
2023-04-18T12:30:24.382Z,32.27
2023-04-18T12:32:52.668Z,32.78
2023-04-18T12:35:21.159Z,33.02
2023-04-18T12:37:49.046Z,32.33
2023-04-18T12:40:18.561Z,31.91
2023-04-18T12:42:46.433Z,31.12
2023-04-18T12:45:14.148Z,30.13
2023-04-18T12:47:43.224Z,30.70
2023-04-18T12:50:11.680Z,31.06
2023-04-18T12:52:40.213Z,30.38
2023-04-18T12:55:08.184Z,31.25
2023-04-18T12:57:36.057Z,31.49
2023-04-18T13:00:14.563Z,31.86
2023-04-18T13:02:44.266Z,32.10
2023-04-18T13:05:12.562Z,31.97
2023-04-18T13:07:42.089Z,31.95
2023-04-18T13:10:11.173Z,31.74
2023-04-18T13:12:39.144Z,31.31
2023-04-18T13:15:08.164Z,30.68
2023-04-18T13:17:36.908Z,30.87
2023-04-18T13:20:09.972Z,31.17
2023-04-18T13:22:37.177Z,30.99
2023-04-18T13:25:06.092Z,31.02
2023-04-18T13:27:33.346Z,31.19
2023-04-18T13:30:01.630Z,31.08
2023-04-18T13:32:28.884Z,31.68
2023-04-18T13:34:57.466Z,31.93
2023-04-18T13:37:25.847Z,32.42
2023-04-18T13:39:53.481Z,32.06
2023-04-18T13:42:20.507Z,32.11
2023-04-18T13:44:47.584Z,32.97
2023-04-18T13:47:14.513Z,32.20
2023-04-18T13:49:42.020Z,32.34
2023-04-18T13:52:08.950Z,32.69
2023-04-18T13:54:37.089Z,32.21
2023-04-18T13:57:03.985Z,32.82
2023-04-18T13:59:31.940Z,33.46
2023-04-18T14:02:00.688Z,32.97
2023-04-18T14:04:27.881Z,32.82
2023-04-18T14:06:55.237Z,32.51
2023-04-18T14:09:22.371Z,32.25
2023-04-18T14:11:50.836Z,32.51
2023-04-18T14:14:18.641Z,33.32
2023-04-18T14:16:45.604Z,32.69
2023-04-18T14:19:12.610Z,32.03
2023-04-18T14:21:39.785Z,32.37
2023-04-18T14:24:07.752Z,33.27
2023-04-18T14:26:34.483Z,33.28
2023-04-18T14:29:03.534Z,33.31
2023-04-18T14:31:30.358Z,33.43
2023-04-18T14:33:57.572Z,33.38
2023-04-18T14:36:24.551Z,34.21
2023-04-18T14:38:51.495Z,34.07
2023-04-18T14:41:18.515Z,33.88
2023-04-18T14:43:45.578Z,33.50
2023-04-18T14:46:16.018Z,34.08
2023-04-18T14:48:48.416Z,34.47
2023-04-18T14:51:16.037Z,33.68
2023-04-18T14:53:42.842Z,32.93
2023-04-18T14:56:10.506Z,33.27
2023-04-18T14:58:37.496Z,33.36
2023-04-18T15:01:04.781Z,33.27
2023-04-18T15:03:31.985Z,33.66
2023-04-18T15:05:59.188Z,33.80
2023-04-18T15:08:26.235Z,33.44
2023-04-18T15:10:53.679Z,33.17
2023-04-18T15:13:21.445Z,33.18
2023-04-18T15:15:55.839Z,33.39
2023-04-18T15:18:23.617Z,33.78
2023-04-18T15:20:51.229Z,33.80
2023-04-18T15:23:18.101Z,33.83
2023-04-18T15:25:46.271Z,33.80
2023-04-18T15:28:15.667Z,33.76
2023-04-18T15:30:43.752Z,34.26
2023-04-18T15:33:14.682Z,34.02
2023-04-18T15:35:42.863Z,34.44
2023-04-18T15:38:10.501Z,34.16
2023-04-18T15:40:38.785Z,34.68
2023-04-18T15:43:05.821Z,34.63
2023-04-18T15:45:34.374Z,35.20
2023-04-18T15:48:01.734Z,34.81
2023-04-18T15:50:28.992Z,34.90
2023-04-18T15:52:56.761Z,35.39
2023-04-18T15:55:24.068Z,35.58
2023-04-18T15:57:51.091Z,35.17
2023-04-18T16:00:19.151Z,35.17
2023-04-18T16:02:46.699Z,35.20
2023-04-18T16:05:14.695Z,35.10
2023-04-18T16:07:42.517Z,35.62
2023-04-18T16:10:14.685Z,35.40
2023-04-18T16:12:44.548Z,35.62
2023-04-18T16:15:11.714Z,35.96
2023-04-18T16:17:39.926Z,36.10
2023-04-18T16:20:08.598Z,36.18
2023-04-18T16:22:37.512Z,36.31
2023-04-18T16:25:06.137Z,36.23
2023-04-18T16:27:33.722Z,36.36
2023-04-18T16:30:00.617Z,36.82
2023-04-18T16:32:29.632Z,37.19
2023-04-18T16:34:56.801Z,36.84
2023-04-18T16:37:23.619Z,37.29
2023-04-18T16:39:50.723Z,37.06
2023-04-18T16:42:17.449Z,36.64
2023-04-18T16:44:44.838Z,36.98
2023-04-18T16:47:11.656Z,36.85
2023-04-18T16:49:40.666Z,36.87
2023-04-18T16:52:08.776Z,37.05
2023-04-18T16:54:35.602Z,37.15
2023-04-18T16:57:02.862Z,37.07
2023-04-18T16:59:29.803Z,37.16
2023-04-18T17:01:56.600Z,37.23
2023-04-18T17:04:27.635Z,37.31
2023-04-18T17:06:55.980Z,37.62
2023-04-18T17:09:23.387Z,37.64
2023-04-18T17:11:50.001Z,37.99
2023-04-18T17:14:17.869Z,38.52
2023-04-18T17:16:47.097Z,39.16
2023-04-18T17:19:15.463Z,39.12
2023-04-18T17:21:43.680Z,39.55
2023-04-18T17:24:10.674Z,39.85
2023-04-18T17:26:38.255Z,39.91
2023-04-18T17:29:06.163Z,39.93
2023-04-18T17:31:33.492Z,40.29
2023-04-18T17:34:00.572Z,40.37
2023-04-18T17:36:28.103Z,40.57
2023-04-18T17:38:55.559Z,40.78
2023-04-18T17:41:22.896Z,40.91
2023-04-18T17:43:52.590Z,40.96
2023-04-18T17:46:20.475Z,41.33
2023-04-18T17:48:47.268Z,41.49
2023-04-18T17:51:15.743Z,41.86
2023-04-18T17:53:46.994Z,42.10
2023-04-18T17:56:15.091Z,42.13
2023-04-18T17:58:43.888Z,42.20
2023-04-18T18:01:18.324Z,42.29
2023-04-18T18:03:46.881Z,42.05
2023-04-18T18:06:14.596Z,42.16
2023-04-18T18:08:42.339Z,42.01
2023-04-18T18:11:10.265Z,42.09
2023-04-18T18:13:41.064Z,42.58
2023-04-18T18:16:09.117Z,42.93
2023-04-18T18:18:37.207Z,42.84
2023-04-18T18:21:05.091Z,43.00
2023-04-18T18:23:33.086Z,42.94
2023-04-18T18:26:00.974Z,42.99
2023-04-18T18:28:29.328Z,43.08
2023-04-18T18:30:56.481Z,43.25
2023-04-18T18:33:23.349Z,43.19
2023-04-18T18:35:50.788Z,43.50
2023-04-18T18:38:18.193Z,43.55
2023-04-18T18:40:45.129Z,43.72
2023-04-18T18:43:12.472Z,43.60
2023-04-18T18:45:39.374Z,43.68
2023-04-18T18:48:07.162Z,43.79
2023-04-18T18:50:34.363Z,43.58
2023-04-18T18:53:01.649Z,43.64
2023-04-18T18:55:29.529Z,43.84
2023-04-18T18:57:56.635Z,43.90
2023-04-18T19:00:24.402Z,43.87
2023-04-18T19:02:51.511Z,43.94
2023-04-18T19:05:18.470Z,43.84
2023-04-18T19:07:46.416Z,45.68
2023-04-18T19:10:13.747Z,48.00
2023-04-18T19:12:41.771Z,48.33
2023-04-18T19:15:09.428Z,48.74
2023-04-18T19:17:36.092Z,51.62
2023-04-18T19:20:03.272Z,52.55
2023-04-18T19:22:31.911Z,51.57
2023-04-18T19:25:00.283Z,51.36
2023-04-18T19:27:27.540Z,51.69
2023-04-18T19:29:54.494Z,52.10
2023-04-18T19:32:21.331Z,51.46
2023-04-18T19:34:51.183Z,51.32
2023-04-18T19:37:19.102Z,51.05
2023-04-18T19:39:46.276Z,51.32
2023-04-18T19:42:14.464Z,51.44
2023-04-18T19:44:41.453Z,51.80
2023-04-18T19:47:09.833Z,51.63
2023-04-18T19:49:37.321Z,51.99
2023-04-18T19:52:04.243Z,51.90
2023-04-18T19:54:35.424Z,52.19
2023-04-18T19:57:04.023Z,52.54
2023-04-18T19:59:32.011Z,52.72
2023-04-18T20:02:04.143Z,52.93
2023-04-18T20:04:33.895Z,52.69
2023-04-18T20:07:01.876Z,52.86
2023-04-18T20:09:29.297Z,52.49
2023-04-18T20:12:00.010Z,52.18
2023-04-18T20:14:28.011Z,51.90
2023-04-18T20:16:57.316Z,52.12
2023-04-18T20:19:24.994Z,52.44
2023-04-18T20:21:52.037Z,52.37
2023-04-18T20:24:20.656Z,52.47
2023-04-18T20:26:47.437Z,52.65
2023-04-18T20:29:15.893Z,53.03
2023-04-18T20:31:42.968Z,53.43
2023-04-18T20:34:10.526Z,53.76
2023-04-18T20:36:40.962Z,54.04
2023-04-18T20:39:08.380Z,54.08
2023-04-18T20:41:36.502Z,54.18
2023-04-18T20:44:04.753Z,54.51
2023-04-18T20:46:31.905Z,54.85
2023-04-18T20:48:59.176Z,55.16
2023-04-18T20:51:26.456Z,55.17
2023-04-18T20:53:53.367Z,56.09
2023-04-18T20:56:20.721Z,56.23
2023-04-18T20:58:47.622Z,56.60
2023-04-18T21:01:14.499Z,57.01
2023-04-18T21:03:42.279Z,56.90
2023-04-18T21:06:12.028Z,57.31
2023-04-18T21:08:39.126Z,57.47
2023-04-18T21:11:06.337Z,57.50
2023-04-18T21:13:34.616Z,57.88
2023-04-18T21:16:03.154Z,57.90
2023-04-18T21:18:30.341Z,58.25
2023-04-18T21:20:57.565Z,58.43
2023-04-18T21:23:24.688Z,58.73
2023-04-18T21:25:52.745Z,58.35
2023-04-18T21:28:20.609Z,58.20
2023-04-18T21:30:47.701Z,58.21
2023-04-18T21:33:15.323Z,57.94
2023-04-18T21:35:42.722Z,58.38
2023-04-18T21:38:09.566Z,59.15
2023-04-18T21:40:37.229Z,59.17
2023-04-18T21:43:04.824Z,58.72
2023-04-18T21:45:33.272Z,58.95
2023-04-18T21:48:00.520Z,58.77
2023-04-18T21:50:27.576Z,59.02
2023-04-18T21:52:54.396Z,59.55
2023-04-18T21:55:21.307Z,59.32
2023-04-18T21:57:49.253Z,59.43
2023-04-18T22:00:17.403Z,59.86
2023-04-18T22:02:45.582Z,60.01
2023-04-18T22:05:17.716Z,60.24
2023-04-18T22:07:54.999Z,60.11
2023-04-18T22:10:25.629Z,60.23
2023-04-18T22:12:56.056Z,59.61
2023-04-18T22:15:23.718Z,59.44
2023-04-18T22:17:50.666Z,59.67
2023-04-18T22:20:19.587Z,60.13
2023-04-18T22:22:46.764Z,60.66
2023-04-18T22:25:13.764Z,61.08
2023-04-18T22:27:42.225Z,61.26
2023-04-18T22:30:09.173Z,61.18
2023-04-18T22:32:36.250Z,60.72
2023-04-18T22:35:03.516Z,60.99
2023-04-18T22:37:30.794Z,61.80
2023-04-18T22:39:58.605Z,62.19
2023-04-18T22:42:25.645Z,62.22
2023-04-18T22:44:53.359Z,62.15
2023-04-18T22:47:20.765Z,62.25
2023-04-18T22:49:47.819Z,62.25
2023-04-18T22:52:15.410Z,62.32
2023-04-18T22:54:42.275Z,62.47
2023-04-18T22:57:10.415Z,62.44
2023-04-18T22:59:37.470Z,62.30
2023-04-18T23:02:04.608Z,62.12
2023-04-18T23:04:32.438Z,62.36
2023-04-18T23:06:59.411Z,62.84
2023-04-18T23:09:26.977Z,62.85
2023-04-18T23:11:53.691Z,62.92
2023-04-18T23:14:20.942Z,62.96
2023-04-18T23:16:49.138Z,62.77
2023-04-18T23:19:16.251Z,62.95
2023-04-18T23:21:43.119Z,62.80
2023-04-18T23:24:11.544Z,62.80
2023-04-18T23:26:39.055Z,62.78
2023-04-18T23:29:06.527Z,62.94
2023-04-18T23:31:34.725Z,63.30
2023-04-18T23:34:01.983Z,63.68
2023-04-18T23:36:30.741Z,63.85
2023-04-18T23:39:00.189Z,64.24
2023-04-18T23:41:28.425Z,63.99
2023-04-18T23:43:55.110Z,63.81
2023-04-18T23:46:21.915Z,64.00
2023-04-18T23:48:48.886Z,64.45
2023-04-18T23:51:16.238Z,64.47
2023-04-18T23:53:44.238Z,64.54
2023-04-18T23:56:12.761Z,64.78
2023-04-18T23:58:41.806Z,64.90
